Time;durP1;ratioP1;P1;durP2;ratioP2;P2;SDS_P1;SDS_P2;PMS_P1;PMS_P2;Temp;Humidity;BMP_temperature;BMP_pressure;BME280_temperature;BME280_humidity;BME280_pressure;Samples;Min_cycle;Max_cycle;Signal;HPM_P1;HPM_P2
2022/06/01 00:01:23;;;;;;;4.20;3.70;;;;;;;15.55;63.12;99862.39;130008;1271;108853;-75
2022/06/01 00:04:29;;;;;;;3.40;3.10;;;;;;;15.50;63.17;99860.16;130166;1270;108908;-78
2022/06/01 00:07:35;;;;;;;3.70;3.20;;;;;;;15.46;63.21;99856.98;130182;1270;108827;-78
2022/06/01 00:10:40;;;;;;;3.50;3.20;;;;;;;15.42;63.07;99854.76;130291;1271;108909;-77
2022/06/01 00:13:47;;;;;;;3.70;3.30;;;;;;;15.43;63.19;99851.84;130182;1271;108827;-77
2022/06/01 00:16:55;;;;;;;3.50;3.20;;;;;;;15.43;63.37;99862.73;130173;1270;108796;-77
2022/06/01 00:20:00;;;;;;;3.30;3.00;;;;;;;15.42;63.12;99869.48;130055;1270;108984;-78
2022/06/01 00:23:07;;;;;;;4.10;3.10;;;;;;;15.39;63.31;99864.50;130258;1271;108720;-79
2022/06/01 00:26:12;;;;;;;4.00;3.10;;;;;;;15.36;63.32;99874.15;130089;1270;108694;-77
2022/06/01 00:29:18;;;;;;;3.80;2.90;;;;;;;15.32;63.55;99878.79;130186;1271;108743;-79
2022/06/01 00:32:23;;;;;;;3.10;2.90;;;;;;;15.27;63.53;99885.23;130118;1271;108903;-79
2022/06/01 00:35:29;;;;;;;2.70;2.50;;;;;;;15.24;63.85;99888.23;130049;1270;108780;-79
2022/06/01 00:38:35;;;;;;;3.40;3.00;;;;;;;15.21;63.78;99890.73;130142;1271;108920;-78
2022/06/01 00:41:40;;;;;;;2.70;2.50;;;;;;;15.19;64.03;99889.75;130090;1271;108946;-78
2022/06/01 00:44:47;;;;;;;2.80;2.50;;;;;;;15.18;64.09;99889.90;130129;1271;108667;-79
2022/06/01 00:47:53;;;;;;;3.30;2.70;;;;;;;15.19;64.05;99888.80;130041;1271;108806;-78
2022/06/01 00:50:59;;;;;;;3.20;2.90;;;;;;;15.22;64.36;99879.81;130155;1270;108952;-81
2022/06/01 00:54:06;;;;;;;4.90;3.10;;;;;;;15.24;64.41;99876.57;130145;1271;108702;-77
2022/06/01 00:57:15;;;;;;;4.80;3.40;;;;;;;15.24;64.41;99883.75;130178;1271;108945;-80
2022/06/01 01:00:25;;;;;;;2.90;2.60;;;;;;;15.23;64.42;99882.39;129890;1271;450195;-77
2022/06/01 01:03:34;;;;;;;3.30;2.80;;;;;;;15.22;64.52;99877.84;130016;1271;108896;-77
2022/06/01 01:06:43;;;;;;;3.50;2.60;;;;;;;15.19;64.52;99876.89;130049;1271;108612;-76
2022/06/01 01:09:49;;;;;;;4.80;2.50;;;;;;;15.15;64.79;99868.39;130139;1271;108689;-81
2022/06/01 01:12:59;;;;;;;3.00;2.40;;;;;;;15.12;64.69;99868.14;130133;1270;107615;-81
2022/06/01 01:16:06;;;;;;;2.90;2.60;;;;;;;15.13;64.69;99860.71;130139;1271;107729;-80
2022/06/01 01:19:17;;;;;;;3.00;2.70;;;;;;;15.15;64.90;99859.41;130085;1271;108844;-79
2022/06/01 01:22:36;;;;;;;2.80;2.60;;;;;;;15.16;64.87;99857.73;130224;1271;108682;-77
2022/06/01 01:25:43;;;;;;;3.50;2.90;;;;;;;15.14;65.06;99855.97;130050;1271;108738;-76
2022/06/01 01:28:48;;;;;;;2.70;2.40;;;;;;;15.10;65.03;99860.02;130206;1271;108720;-80
2022/06/01 01:31:53;;;;;;;2.90;2.70;;;;;;;15.07;64.95;99856.89;130156;1270;108846;-76
2022/06/01 01:34:59;;;;;;;3.50;3.20;;;;;;;15.04;65.27;99856.86;130202;1271;107576;-77
2022/06/01 01:38:09;;;;;;;5.10;2.70;;;;;;;14.99;65.43;99859.13;130116;1270;108870;-77
2022/06/01 01:41:20;;;;;;;3.10;2.60;;;;;;;14.94;65.52;99855.64;130149;1271;108766;-77
2022/06/01 01:44:28;;;;;;;3.20;2.90;;;;;;;14.92;65.53;99856.34;130169;1271;108688;-77
2022/06/01 01:47:37;;;;;;;3.60;3.00;;;;;;;14.91;65.85;99861.21;130063;1270;108718;-77
2022/06/01 01:50:43;;;;;;;3.20;2.90;;;;;;;14.93;65.77;99855.52;130219;1271;108774;-79
2022/06/01 01:53:48;;;;;;;3.60;2.80;;;;;;;14.93;65.78;99852.86;130222;1271;107683;-78
2022/06/01 01:57:17;;;;;;;3.50;3.20;;;;;;;14.91;65.97;99844.05;130152;1271;108892;-78
2022/06/01 02:00:25;;;;;;;3.70;3.40;;;;;;;14.87;66.13;99840.63;130065;1271;108067;-75
2022/06/01 02:03:37;;;;;;;3.70;3.40;;;;;;;14.83;66.12;99840.05;130195;1271;108749;-78
2022/06/01 02:06:47;;;;;;;3.80;3.00;;;;;;;14.79;66.26;99835.05;130208;1271;108617;-78
2022/06/01 02:13:18;;;;;;;3.80;3.10;;;;;;;14.72;66.73;99827.83;130197;1271;107003;-80
2022/06/01 02:16:25;;;;;;;3.50;3.20;;;;;;;14.71;66.64;99820.20;130211;1271;108829;-78
2022/06/01 02:19:36;;;;;;;3.70;3.30;;;;;;;14.70;66.87;99816.60;130022;1271;108816;-77
2022/06/01 02:22:43;;;;;;;3.60;3.30;;;;;;;14.69;66.92;99814.38;129978;1271;108757;-76
2022/06/01 02:25:50;;;;;;;4.30;3.90;;;;;;;14.69;67.09;99813.04;129989;1271;108675;-78
2022/06/01 02:29:02;;;;;;;4.90;4.00;;;;;;;14.66;67.09;99817.85;130004;1272;108916;-77
2022/06/01 02:32:11;;;;;;;3.50;3.10;;;;;;;14.59;67.26;99840.52;130021;1271;107181;-76
2022/06/01 02:35:20;;;;;;;3.90;3.50;;;;;;;14.57;67.45;99847.13;130032;1271;108689;-76
2022/06/01 02:38:32;;;;;;;3.70;3.30;;;;;;;14.58;67.65;99847.45;130077;1271;108789;-74
2022/06/01 02:45:04;;;;;;;5.10;3.70;;;;;;;14.64;67.52;99845.88;130012;1271;108794;-75
2022/06/01 02:48:10;;;;;;;4.40;4.00;;;;;;;14.62;67.69;99848.95;129944;1274;108785;-78
2022/06/01 02:51:17;;;;;;;4.90;4.40;;;;;;;14.61;67.83;99846.08;129987;1274;108742;-81
2022/06/01 02:54:23;;;;;;;5.10;4.40;;;;;;;14.59;67.80;99842.26;130021;1274;108786;-79
2022/06/01 02:57:28;;;;;;;4.80;4.20;;;;;;;14.56;68.07;99847.90;129928;1274;109169;-80
2022/06/01 03:00:37;;;;;;;4.00;3.30;;;;;;;14.49;68.23;99855.38;129959;1274;108687;-75
2022/06/01 03:03:42;;;;;;;5.40;4.30;;;;;;;14.49;68.14;99866.11;129958;1274;108728;-78
2022/06/01 03:06:48;;;;;;;5.20;4.70;;;;;;;14.45;68.88;99874.41;130017;1274;109601;-77
2022/06/01 03:09:53;;;;;;;6.50;4.70;;;;;;;14.39;68.87;99864.14;130085;1274;108663;-78
2022/06/01 03:12:59;;;;;;;5.20;4.70;;;;;;;14.41;68.73;99859.16;131086;1274;108446;-78
2022/06/01 03:16:05;;;;;;;5.50;4.50;;;;;;;14.45;68.69;99857.84;129910;1272;108052;-78
2022/06/01 03:19:11;;;;;;;4.90;4.40;;;;;;;14.47;68.78;99856.80;129865;1274;108780;-77
2022/06/01 03:22:16;;;;;;;4.10;3.30;;;;;;;14.50;68.90;99859.65;129903;1272;108942;-78
2022/06/01 03:25:23;;;;;;;4.00;3.60;;;;;;;14.53;68.92;99862.48;129900;1273;108901;-79
2022/06/01 03:28:29;;;;;;;3.90;3.60;;;;;;;14.59;69.11;99866.84;130026;1273;108982;-78
2022/06/01 03:31:34;;;;;;;4.30;3.90;;;;;;;14.60;69.04;99871.92;130012;1273;109047;-80
2022/06/01 03:34:40;;;;;;;4.80;4.10;;;;;;;14.66;69.17;99879.20;129877;1274;108875;-80
2022/06/01 03:37:46;;;;;;;4.00;3.70;;;;;;;14.70;69.20;99878.41;130041;1274;108822;-77
2022/06/01 03:40:51;;;;;;;4.60;4.00;;;;;;;14.71;69.22;99880.00;129893;1273;108979;-78
2022/06/01 03:47:20;;;;;;;3.20;2.90;;;;;;;14.70;69.61;99888.38;129944;1271;108726;-79
2022/06/01 03:50:26;;;;;;;3.70;3.30;;;;;;;14.75;69.46;99891.60;130014;1270;108942;-78
2022/06/01 03:53:32;;;;;;;4.20;3.50;;;;;;;14.83;69.56;99891.65;130062;1271;108722;-78
2022/06/01 03:56:37;;;;;;;4.50;4.10;;;;;;;14.92;69.39;99902.34;129985;1271;109087;-79
2022/06/01 03:59:43;;;;;;;4.90;4.40;;;;;;;14.99;69.76;99902.65;129988;1270;108943;-79
2022/06/01 04:02:48;;;;;;;5.50;5.00;;;;;;;15.04;69.68;99894.52;129993;1270;108872;-78
2022/06/01 04:05:54;;;;;;;6.30;5.70;;;;;;;15.06;69.48;99886.20;130055;1271;108717;-79
2022/06/01 04:08:59;;;;;;;5.10;4.60;;;;;;;15.04;69.76;99890.75;129964;1270;108895;-78
2022/06/01 04:12:06;;;;;;;5.00;4.50;;;;;;;15.03;69.96;99893.02;129983;1271;108786;-78
2022/06/01 04:15:12;;;;;;;6.20;4.60;;;;;;;15.06;69.89;99887.60;130039;1270;108910;-78
2022/06/01 04:18:18;;;;;;;6.00;5.40;;;;;;;15.09;69.96;99885.94;130036;1270;108910;-78
2022/06/01 04:21:26;;;;;;;5.90;5.30;;;;;;;15.11;70.35;99894.06;129965;1270;108668;-79
2022/06/01 04:24:35;;;;;;;6.10;5.50;;;;;;;15.16;70.48;99892.32;129943;1270;108797;-78
2022/06/01 04:27:41;;;;;;;5.80;5.30;;;;;;;15.16;70.39;99887.53;130012;1271;108704;-78
2022/06/01 04:30:47;;;;;;;8.60;5.50;;;;;;;15.18;70.54;99882.83;130025;1271;108672;-78
2022/06/01 04:33:53;;;;;;;6.10;5.50;;;;;;;15.15;71.24;99882.55;129974;1271;108557;-78
2022/06/01 04:36:58;;;;;;;6.20;5.60;;;;;;;15.07;71.05;99895.17;129970;1271;108818;-79
2022/06/01 04:40:05;;;;;;;6.90;6.00;;;;;;;15.12;71.24;99900.64;129985;1271;108897;-78
2022/06/01 04:43:11;;;;;;;6.50;5.90;;;;;;;15.18;71.26;99896.08;129998;1271;108037;-78
2022/06/01 04:46:16;;;;;;;6.80;6.00;;;;;;;15.21;71.14;99894.27;130075;1271;108882;-79
2022/06/01 04:49:22;;;;;;;6.80;6.20;;;;;;;15.24;71.25;99902.04;130084;1270;107617;-77
2022/06/01 04:52:27;;;;;;;7.20;6.50;;;;;;;15.23;71.47;99901.25;130135;1270;108554;-77
2022/06/01 04:55:33;;;;;;;7.00;6.20;;;;;;;15.22;71.64;99897.56;129922;1271;108834;-77
2022/06/01 04:58:38;;;;;;;11.90;8.40;;;;;;;15.22;71.50;99895.95;130128;1271;107133;-79
2022/06/01 05:01:43;;;;;;;11.80;8.50;;;;;;;15.26;71.53;99887.05;130149;1271;108798;-77
2022/06/01 05:04:49;;;;;;;9.10;8.20;;;;;;;15.31;71.55;99866.00;130208;1270;108765;-82
2022/06/01 05:07:55;;;;;;;8.80;7.80;;;;;;;15.29;71.57;99856.52;130141;1271;109657;-83
2022/06/01 05:11:00;;;;;;;8.70;7.80;;;;;;;15.29;71.93;99859.00;130097;1271;108756;-83
2022/06/01 05:14:06;;;;;;;9.70;8.20;;;;;;;15.28;72.03;99860.66;130075;1270;108602;-83
2022/06/01 05:17:11;;;;;;;7.90;6.90;;;;;;;15.29;72.11;99866.16;130034;1270;108020;-83
2022/06/01 05:20:17;;;;;;;8.70;7.80;;;;;;;15.31;72.19;99870.30;130054;1270;108756;-82
2022/06/01 05:23:22;;;;;;;8.40;7.20;;;;;;;15.35;72.13;99874.10;130079;1271;108720;-83
2022/06/01 05:26:28;;;;;;;9.70;7.90;;;;;;;15.40;72.33;99881.42;130139;1270;108691;-83
2022/06/01 05:29:34;;;;;;;9.10;8.20;;;;;;;15.43;72.37;99880.83;130199;1270;108808;-83
2022/06/01 05:32:39;;;;;;;7.70;6.90;;;;;;;15.43;72.63;99884.89;130259;1271;108712;-84
2022/06/01 05:35:45;;;;;;;7.40;6.60;;;;;;;15.46;72.78;99878.38;130170;1271;108818;-84
2022/06/01 05:38:51;;;;;;;7.70;6.90;;;;;;;15.51;72.74;99881.05;130150;1270;108905;-81
2022/06/01 05:41:56;;;;;;;7.50;6.80;;;;;;;15.57;72.60;99874.23;130213;1270;108787;-82
2022/06/01 05:45:02;;;;;;;8.00;7.20;;;;;;;15.62;72.89;99880.52;130360;1271;108624;-82
2022/06/01 05:48:10;;;;;;;8.90;8.10;;;;;;;15.67;72.97;99882.42;130574;1271;108849;-82
2022/06/01 05:51:15;;;;;;;8.40;7.40;;;;;;;15.70;73.00;99880.11;130183;1271;107701;-82
2022/06/01 05:54:21;;;;;;;7.70;6.90;;;;;;;15.71;73.01;99889.03;130273;1269;108844;-82
2022/06/01 05:57:27;;;;;;;7.10;6.40;;;;;;;15.74;73.18;99899.17;130181;1271;108974;-82
2022/06/01 06:00:32;;;;;;;7.90;7.10;;;;;;;15.77;73.29;99898.95;130216;1271;108556;-82
2022/06/01 06:03:38;;;;;;;8.30;7.50;;;;;;;15.82;73.23;99891.48;130196;1270;108839;-83
2022/06/01 06:06:43;;;;;;;9.20;7.60;;;;;;;15.88;73.15;99892.51;130176;1271;108762;-83
2022/06/01 06:09:49;;;;;;;8.60;7.10;;;;;;;15.89;73.26;99887.83;130186;1271;108627;-83
2022/06/01 06:12:55;;;;;;;6.90;6.30;;;;;;;15.89;73.19;99888.81;130250;1271;108786;-82
2022/06/01 06:16:00;;;;;;;6.70;6.10;;;;;;;15.88;73.35;99893.00;130221;1269;108790;-83
2022/06/01 06:19:06;;;;;;;7.50;6.80;;;;;;;15.86;73.42;99889.05;130110;1269;107762;-82
2022/06/01 06:22:11;;;;;;;7.50;6.80;;;;;;;15.88;73.41;99882.98;130144;1270;108653;-82
2022/06/01 06:25:17;;;;;;;7.60;6.90;;;;;;;15.90;73.50;99883.98;130305;1271;108551;-83
2022/06/01 06:28:22;;;;;;;8.20;7.40;;;;;;;15.93;73.44;99889.55;130369;1271;108973;-84
2022/06/01 06:31:28;;;;;;;8.30;7.50;;;;;;;15.95;73.56;99891.05;130266;1271;108865;-83
2022/06/01 06:34:33;;;;;;;7.10;6.40;;;;;;;15.97;73.71;99893.84;130157;1271;108704;-83
2022/06/01 06:37:39;;;;;;;8.70;7.80;;;;;;;16.03;73.79;99894.38;130147;1271;107489;-83
2022/06/01 06:40:44;;;;;;;9.10;8.10;;;;;;;16.15;73.90;99893.16;130289;1271;108135;-83
2022/06/01 06:43:51;;;;;;;10.40;8.40;;;;;;;16.32;73.85;99882.77;130155;1270;108857;-83
2022/06/01 06:46:57;;;;;;;10.60;8.50;;;;;;;16.45;73.79;99881.34;130203;1271;108701;-83
2022/06/01 06:50:05;;;;;;;10.60;8.90;;;;;;;16.57;73.72;99880.14;130222;1270;108567;-83
2022/06/01 06:53:11;;;;;;;11.00;9.20;;;;;;;16.64;73.71;99877.06;130288;1270;108759;-82
2022/06/01 06:56:19;;;;;;;9.60;8.30;;;;;;;16.71;73.67;99873.19;130176;1269;108867;-82
2022/06/01 06:59:24;;;;;;;9.30;7.00;;;;;;;16.78;73.57;99865.08;130204;1271;108824;-83
2022/06/01 07:02:30;;;;;;;10.00;7.50;;;;;;;16.88;73.53;99862.53;130189;1271;108727;-83
2022/06/01 07:09:00;;;;;;;8.60;7.70;;;;;;;17.11;73.43;99857.09;130293;1271;108762;-83
2022/06/01 07:12:07;;;;;;;7.90;6.70;;;;;;;17.16;73.33;99857.35;130272;1271;108740;-83
2022/06/01 07:15:13;;;;;;;8.60;6.50;;;;;;;17.15;73.25;99853.86;130273;1271;108781;-83
2022/06/01 07:18:18;;;;;;;6.30;5.60;;;;;;;17.15;73.20;99851.04;130279;1271;108893;-83
2022/06/01 07:21:24;;;;;;;6.60;5.00;;;;;;;17.11;73.28;99853.27;130167;1271;108674;-83
2022/06/01 07:24:29;;;;;;;5.10;4.00;;;;;;;17.09;73.30;99846.35;130219;1269;108353;-83
2022/06/01 07:27:36;;;;;;;4.10;3.70;;;;;;;17.12;73.32;99848.47;130255;1271;107134;-83
2022/06/01 07:30:41;;;;;;;4.50;3.80;;;;;;;17.17;73.25;99849.46;130251;1271;108718;-83
2022/06/01 07:33:47;;;;;;;4.50;4.10;;;;;;;17.18;73.26;99853.95;130259;1270;108960;-83
2022/06/01 07:36:52;;;;;;;4.40;3.80;;;;;;;17.14;73.19;99847.84;130262;1270;108732;-83
2022/06/01 07:43:22;;;;;;;3.80;3.40;;;;;;;17.34;73.19;99848.29;130232;1271;108528;-83
2022/06/01 07:46:28;;;;;;;4.10;3.10;;;;;;;17.59;73.17;99845.06;130229;1270;108639;-83
2022/06/01 07:49:34;;;;;;;4.90;3.40;;;;;;;17.98;73.28;99846.45;130202;1271;108613;-83
2022/06/01 07:52:39;;;;;;;2.80;2.50;;;;;;;18.38;73.13;99841.90;130276;1270;108914;-83
2022/06/01 07:55:45;;;;;;;3.00;2.70;;;;;;;18.76;72.56;99836.48;130343;1270;108632;-83
2022/06/01 07:58:50;;;;;;;3.20;2.50;;;;;;;19.07;72.56;99838.51;130265;1271;108763;-84
2022/06/01 08:01:56;;;;;;;2.80;2.20;;;;;;;19.35;72.10;99843.45;130265;1270;108652;-83
2022/06/01 08:05:01;;;;;;;2.50;2.10;;;;;;;19.54;71.91;99844.25;130386;1270;108883;-83
2022/06/01 08:08:07;;;;;;;2.40;2.20;;;;;;;19.69;71.76;99849.33;130295;1271;108833;-83
2022/06/01 08:11:13;;;;;;;5.90;3.50;;;;;;;19.78;71.09;99853.13;130290;1269;107228;-84
2022/06/01 08:14:19;;;;;;;3.00;2.30;;;;;;;19.94;71.18;99857.26;130214;1270;108643;-85
2022/06/01 08:17:25;;;;;;;3.80;2.40;;;;;;;20.09;70.96;99860.14;130303;1271;108700;-84
2022/06/01 08:20:31;;;;;;;3.00;2.40;;;;;;;20.16;70.36;99863.15;130157;1270;108616;-84
2022/06/01 08:23:37;;;;;;;2.60;2.40;;;;;;;20.14;70.01;99862.09;130234;1270;107766;-85
2022/06/01 08:26:42;;;;;;;2.50;2.10;;;;;;;20.17;69.78;99861.68;130162;1270;108776;-84
2022/06/01 08:29:48;;;;;;;2.40;2.20;;;;;;;20.25;69.91;99864.09;130293;1270;107175;-84
2022/06/01 08:32:55;;;;;;;2.60;2.40;;;;;;;20.31;69.60;99864.69;130155;1271;108796;-84
2022/06/01 08:36:00;;;;;;;2.30;2.10;;;;;;;20.35;69.46;99859.71;130067;1270;109007;-82
2022/06/01 08:39:06;;;;;;;2.70;2.10;;;;;;;20.35;69.06;99863.35;130069;1270;108551;-84
2022/06/01 08:42:15;;;;;;;3.20;1.90;;;;;;;20.35;68.76;99869.68;130223;1270;107832;-82
2022/06/01 08:45:24;;;;;;;2.50;2.20;;;;;;;20.38;68.95;99864.06;130312;1270;108725;-84
2022/06/01 08:48:35;;;;;;;2.40;2.10;;;;;;;20.43;68.48;99861.34;130211;1270;108813;-83
2022/06/01 08:51:41;;;;;;;2.10;1.90;;;;;;;20.44;68.23;99864.58;130098;1270;108703;-82
2022/06/01 08:54:46;;;;;;;1.70;1.60;;;;;;;20.46;68.05;99860.88;130103;1270;108702;-82
2022/06/01 08:57:59;;;;;;;1.70;1.60;;;;;;;20.54;67.77;99861.70;130085;1270;108739;-83
2022/06/01 09:01:13;;;;;;;1.70;1.60;;;;;;;20.53;66.97;99860.92;130393;1270;107801;-84
2022/06/01 09:04:29;;;;;;;1.90;1.60;;;;;;;20.62;67.49;99864.29;130313;1269;108115;-85
2022/06/01 09:07:38;;;;;;;1.60;1.50;;;;;;;20.62;66.89;99863.59;130302;1270;107716;-84
2022/06/01 09:10:58;;;;;;;1.60;1.50;;;;;;;20.56;66.09;99860.89;130362;1271;109034;-85
2022/06/01 09:14:12;;;;;;;1.60;1.50;;;;;;;20.44;66.95;99859.52;130329;1270;108733;-84
2022/06/01 09:17:18;;;;;;;1.70;1.60;;;;;;;20.49;66.74;99859.84;130336;1270;107051;-85
2022/06/01 09:23:48;;;;;;;1.80;1.60;;;;;;;20.36;66.43;99861.90;130301;1271;108661;-85
2022/06/01 09:27:00;;;;;;;1.60;1.50;;;;;;;20.35;65.93;99864.80;130314;1270;108725;-85
2022/06/01 09:30:23;;;;;;;2.30;1.80;;;;;;;20.27;65.07;99867.15;130446;1270;108805;-85
2022/06/01 09:33:30;;;;;;;2.70;1.50;;;;;;;20.16;63.78;99874.48;130299;1271;108932;-84
2022/06/01 09:36:48;;;;;;;2.00;1.80;;;;;;;19.97;63.43;99877.55;130299;1269;106863;-84
2022/06/01 09:39:56;;;;;;;2.00;1.80;;;;;;;19.97;64.57;99875.27;130322;1269;109001;-84
2022/06/01 09:43:01;;;;;;;1.80;1.40;;;;;;;19.92;64.09;99876.02;130301;1270;108956;-84
2022/06/01 09:46:07;;;;;;;2.30;1.70;;;;;;;19.89;63.35;99875.89;130323;1270;108793;-84
2022/06/01 09:49:24;;;;;;;3.80;1.70;;;;;;;19.89;64.08;99879.10;130285;1271;107707;-84
2022/06/01 09:52:34;;;;;;;2.00;1.80;;;;;;;19.92;63.16;99880.11;130276;1271;108624;-84
2022/06/01 09:55:53;;;;;;;3.10;2.40;;;;;;;20.03;64.49;99884.62;130407;1271;108821;-84
2022/06/01 10:06:09;;;;;;;2.20;2.00;;;;;;;20.33;63.89;99882.59;130309;1269;108361;-84
2022/06/01 10:09:21;;;;;;;2.60;1.70;;;;;;;20.69;63.44;99880.96;130302;1270;107588;-84
2022/06/01 10:12:32;;;;;;;1.80;1.70;;;;;;;21.02;63.18;99879.46;130323;1270;108891;-83
2022/06/01 10:15:43;;;;;;;2.20;1.70;;;;;;;21.32;62.82;99880.05;130280;1270;108845;-84
2022/06/01 10:18:49;;;;;;;2.50;1.80;;;;;;;21.44;62.49;99877.47;130312;1270;108821;-83
2022/06/01 10:21:59;;;;;;;2.50;1.90;;;;;;;21.44;61.75;99873.68;130205;1270;108678;-84
2022/06/01 10:25:11;;;;;;;4.30;2.30;;;;;;;21.39;60.65;99868.79;130281;1270;108677;-84
2022/06/01 10:28:20;;;;;;;3.70;2.00;;;;;;;21.32;61.80;99866.73;130272;1270;108851;-83
2022/06/01 10:31:33;;;;;;;3.30;1.70;;;;;;;21.35;61.49;99866.58;130270;1270;108690;-84
2022/06/01 10:34:46;;;;;;;1.70;1.50;;;;;;;21.24;60.86;99865.32;130258;1270;109011;-83
2022/06/01 10:38:00;;;;;;;3.10;1.90;;;;;;;21.24;60.82;99862.86;130277;1270;109111;-84
2022/06/01 10:41:10;;;;;;;2.70;2.00;;;;;;;21.41;60.14;99863.63;130145;1270;108676;-82
2022/06/01 10:44:24;;;;;;;2.00;1.80;;;;;;;21.36;59.86;99859.65;130282;1270;108769;-84
2022/06/01 10:47:37;;;;;;;1.80;1.60;;;;;;;21.31;58.90;99860.83;130377;1270;108717;-84
2022/06/01 10:50:59;;;;;;;2.80;1.70;;;;;;;21.30;58.80;99859.81;130326;1270;108831;-84
2022/06/01 10:54:12;;;;;;;1.60;1.40;;;;;;;21.48;59.41;99863.82;130270;1270;107665;-83
2022/06/01 10:57:22;;;;;;;2.80;1.50;;;;;;;21.70;59.11;99864.66;130263;1270;108762;-84
2022/06/01 11:00:33;;;;;;;1.60;1.40;;;;;;;21.86;58.70;99859.33;130232;1270;108913;-84
2022/06/01 11:04:05;;;;;;;1.80;1.30;;;;;;;21.97;59.06;99859.09;130320;1270;107743;-82
2022/06/01 11:07:38;;;;;;;1.50;1.40;;;;;;;22.18;59.21;99860.36;130275;1270;108755;-84
2022/06/01 11:10:53;;;;;;;1.70;1.40;;;;;;;22.30;58.68;99865.96;130279;1270;108689;-83
2022/06/01 11:14:14;;;;;;;1.60;1.40;;;;;;;22.32;57.37;99870.02;130277;1270;108759;-83
2022/06/01 11:17:27;;;;;;;2.10;1.60;;;;;;;22.19;56.31;99864.35;130329;1269;108980;-82
2022/06/01 11:21:01;;;;;;;3.40;1.50;;;;;;;22.14;57.43;99865.11;130415;1270;107635;-83
2022/06/01 11:24:27;;;;;;;2.10;1.40;;;;;;;22.25;57.64;99853.83;130282;1270;108740;-84
2022/06/01 11:27:56;;;;;;;1.60;1.50;;;;;;;22.37;56.14;99853.28;130350;1270;108889;-82
2022/06/01 11:31:15;;;;;;;2.50;1.70;;;;;;;22.43;56.26;99848.89;130278;1270;108906;-84
2022/06/01 11:34:25;;;;;;;1.70;1.60;;;;;;;22.42;55.87;99848.54;130327;1269;108725;-84
2022/06/01 11:37:36;;;;;;;4.20;2.00;;;;;;;22.32;55.56;99855.63;130379;1270;108934;-82
2022/06/01 11:40:49;;;;;;;1.70;1.30;;;;;;;22.27;54.09;99863.23;130610;1270;108600;-83
2022/06/01 11:43:59;;;;;;;1.20;1.10;;;;;;;22.24;52.51;99855.77;130271;1270;108645;-83
2022/06/01 11:47:10;;;;;;;1.40;1.20;;;;;;;22.25;51.59;99853.66;130396;1270;108866;-84
2022/06/01 11:50:26;;;;;;;2.80;1.20;;;;;;;22.26;52.48;99859.18;130263;1269;108851;-84
2022/06/01 11:53:43;;;;;;;2.20;1.10;;;;;;;22.27;51.63;99859.17;130324;1270;108725;-83
2022/06/01 11:56:59;;;;;;;1.30;1.00;;;;;;;22.33;51.28;99855.91;130291;1271;108716;-83
2022/06/01 12:00:15;;;;;;;1.30;1.20;;;;;;;22.50;51.86;99851.86;130313;1270;108883;-83
2022/06/01 12:03:40;;;;;;;2.10;1.20;;;;;;;22.55;51.20;99860.92;130292;1270;108670;-83
2022/06/01 12:06:55;;;;;;;1.70;1.20;;;;;;;22.46;47.24;99863.34;130445;1270;108701;-83
2022/06/01 12:10:19;;;;;;;1.60;1.20;;;;;;;22.45;48.38;99849.89;130324;1268;108577;-83
2022/06/01 12:13:31;;;;;;;3.50;1.10;;;;;;;22.37;49.13;99862.20;130293;1271;108753;-83
2022/06/01 12:16:37;;;;;;;3.30;1.50;;;;;;;22.30;47.87;99865.32;130293;1270;108663;-83
2022/06/01 12:19:45;;;;;;;2.20;1.20;;;;;;;22.27;48.64;99875.63;130351;1270;108889;-86
2022/06/01 12:29:59;;;;;;;1.70;1.30;;;;;;;22.62;45.34;99875.90;129889;1271;108700;-73
2022/06/01 12:33:21;;;;;;;2.70;1.20;;;;;;;22.53;46.76;99883.95;130192;1270;108714;-73
2022/06/01 12:36:28;;;;;;;2.20;1.20;;;;;;;22.52;45.45;99880.82;130152;1270;108798;-73
2022/06/01 12:39:42;;;;;;;1.20;1.10;;;;;;;22.56;45.41;99884.54;130317;1270;108666;-73
2022/06/01 12:42:53;;;;;;;2.00;1.30;;;;;;;22.62;45.39;99880.36;130191;1271;108681;-73
2022/06/01 12:45:59;;;;;;;1.30;1.00;;;;;;;22.57;44.59;99887.99;130250;1271;108770;-73
2022/06/01 12:49:30;;;;;;;1.80;1.10;;;;;;;22.63;43.57;99889.91;130192;1271;108737;-73
2022/06/01 12:52:36;;;;;;;2.20;1.30;;;;;;;22.54;43.59;99896.91;130198;1270;108772;-73
2022/06/01 12:55:42;;;;;;;2.20;1.30;;;;;;;22.63;42.52;99894.26;130239;1271;108846;-74
2022/06/01 12:58:50;;;;;;;1.80;1.30;;;;;;;22.81;43.77;99890.63;130231;1270;108838;-73
2022/06/01 13:02:01;;;;;;;1.50;1.20;;;;;;;22.92;43.66;99889.54;130125;1270;226762;-73
2022/06/01 13:05:15;;;;;;;2.40;1.70;;;;;;;22.81;41.03;99899.84;130221;1271;108852;-73
2022/06/01 13:08:25;;;;;;;1.50;1.30;;;;;;;22.47;40.38;99894.64;130219;1271;108781;-73
2022/06/01 13:11:32;;;;;;;1.40;1.30;;;;;;;22.29;40.82;99894.33;130236;1271;108673;-73
2022/06/01 13:14:38;;;;;;;1.70;1.30;;;;;;;22.16;40.60;99896.17;130304;1270;108894;-73
2022/06/01 13:17:54;;;;;;;1.70;1.20;;;;;;;22.13;42.30;99884.23;130147;1270;107638;-74
2022/06/01 13:21:05;;;;;;;1.20;1.10;;;;;;;22.23;42.24;99887.83;130416;1269;108508;-73
2022/06/01 13:24:12;;;;;;;1.50;1.30;;;;;;;22.30;42.39;99890.27;130307;1270;108728;-75
2022/06/01 13:27:18;;;;;;;2.70;1.50;;;;;;;22.32;40.76;99888.50;130137;1270;108864;-75
2022/06/01 13:30:34;;;;;;;2.70;1.40;;;;;;;22.23;41.40;99889.67;130206;1269;108839;-74
2022/06/01 13:33:43;;;;;;;2.60;1.30;;;;;;;22.13;41.53;99890.56;130076;1270;108645;-73
2022/06/01 13:36:51;;;;;;;6.10;1.90;;;;;;;22.11;41.85;99884.98;130101;1270;109076;-73
2022/06/01 13:39:58;;;;;;;3.50;1.20;;;;;;;22.05;40.25;99883.27;129986;1271;108917;-73
2022/06/01 13:43:16;;;;;;;1.60;1.20;;;;;;;22.03;40.92;99882.68;130277;1270;108735;-74
2022/06/01 13:46:34;;;;;;;1.50;1.10;;;;;;;21.99;40.48;99888.10;130371;1270;107726;-73
2022/06/01 13:49:43;;;;;;;3.50;1.10;;;;;;;21.98;41.02;99884.10;130313;1271;108895;-74
2022/06/01 13:53:01;;;;;;;2.00;1.00;;;;;;;22.02;41.06;99887.38;130120;1270;108906;-76
2022/06/01 13:56:21;;;;;;;1.30;1.10;;;;;;;22.06;40.87;99884.83;130175;1270;109029;-73
2022/06/01 13:59:36;;;;;;;1.10;1.00;;;;;;;22.06;40.02;99887.75;130087;1270;108940;-73
2022/06/01 14:02:52;;;;;;;1.50;0.90;;;;;;;22.05;40.23;99891.87;130114;1270;108950;-73
2022/06/01 14:06:08;;;;;;;1.30;0.90;;;;;;;22.02;40.00;99890.54;130238;1270;107771;-73
2022/06/01 14:09:16;;;;;;;1.70;0.80;;;;;;;22.03;39.64;99888.94;130109;1270;108791;-73
2022/06/01 14:12:23;;;;;;;3.80;2.70;;;;;;;22.05;39.31;99895.88;130090;1270;108850;-74
2022/06/01 14:15:28;;;;;;;6.50;5.60;;;;;;;22.04;38.92;99897.20;130041;1270;108752;-73
2022/06/01 14:18:34;;;;;;;3.50;2.40;;;;;;;22.07;38.92;99908.38;130012;1271;108828;-73
2022/06/01 14:21:40;;;;;;;2.80;1.30;;;;;;;22.09;38.08;99909.83;130041;1271;108904;-73
2022/06/01 14:31:35;;;;;;;3.50;1.50;;;;;;;21.86;38.53;99923.59;130068;1270;109008;-74
2022/06/01 14:34:40;;;;;;;1.20;1.00;;;;;;;21.78;38.53;99926.67;130090;1270;108808;-74
2022/06/01 14:37:47;;;;;;;2.90;1.10;;;;;;;21.66;38.72;99926.65;130037;1270;108939;-73
2022/06/01 14:40:55;;;;;;;1.40;1.30;;;;;;;21.55;37.38;99928.92;130173;1270;108848;-74
2022/06/01 14:44:02;;;;;;;1.80;1.30;;;;;;;21.46;38.35;99928.52;130117;1271;108796;-73
2022/06/01 14:47:08;;;;;;;1.70;1.10;;;;;;;21.49;37.83;99927.30;130131;1270;108852;-74
2022/06/01 14:50:13;;;;;;;2.20;1.50;;;;;;;21.70;39.32;99926.36;130082;1270;108721;-74
2022/06/01 14:53:25;;;;;;;3.70;1.50;;;;;;;22.09;39.01;99930.80;130059;1270;107641;-73
2022/06/01 14:56:31;;;;;;;2.70;1.30;;;;;;;22.37;38.82;99925.30;130094;1270;108868;-74
2022/06/01 14:59:37;;;;;;;1.60;1.50;;;;;;;22.35;38.19;99931.56;130104;1270;108829;-74
2022/06/01 15:02:47;;;;;;;1.60;1.50;;;;;;;22.13;37.91;99933.66;130150;1270;108853;-73
2022/06/01 15:05:53;;;;;;;1.50;1.30;;;;;;;22.09;38.77;99934.44;130094;1270;108794;-73
2022/06/01 15:08:58;;;;;;;2.40;1.50;;;;;;;22.11;38.97;99935.70;130063;1270;108765;-73